sensor_id;sensor_type;location;lat;lon;timestamp;pressure;altitude;pressure_sealevel;temperature;humidity
24031;BME280;12240;51.142;22.486;2022-10-16T00:01:43;99622.50;;;9.72;100.00
24031;BME280;12240;51.142;22.486;2022-10-16T00:04:12;99672.75;;;10.03;100.00
24031;BME280;12240;51.142;22.486;2022-10-16T00:06:40;99603.34;;;9.59;100.00
24031;BME280;12240;51.142;22.486;2022-10-16T00:09:08;99640.00;;;9.74;100.00
24031;BME280;12240;51.142;22.486;2022-10-16T00:11:39;99657.38;;;9.78;100.00
24031;BME280;12240;51.142;22.486;2022-10-16T00:14:14;99681.31;;;9.97;100.00
24031;BME280;12240;51.142;22.486;2022-10-16T00:16:42;99679.47;;;9.98;100.00
24031;BME280;12240;51.142;22.486;2022-10-16T00:19:11;99690.53;;;9.93;100.00
24031;BME280;12240;51.142;22.486;2022-10-16T00:21:40;99652.47;;;9.64;100.00
24031;BME280;12240;51.142;22.486;2022-10-16T00:24:10;99697.38;;;9.86;100.00
24031;BME280;12240;51.142;22.486;2022-10-16T00:26:39;99682.41;;;9.76;100.00
24031;BME280;12240;51.142;22.486;2022-10-16T00:29:08;99678.47;;;9.70;100.00
24031;BME280;12240;51.142;22.486;2022-10-16T00:31:36;99644.75;;;9.42;100.00
24031;BME280;12240;51.142;22.486;2022-10-16T00:34:04;99691.09;;;9.68;100.00
24031;BME280;12240;51.142;22.486;2022-10-16T00:36:32;99695.16;;;9.63;100.00
24031;BME280;12240;51.142;22.486;2022-10-16T00:39:00;99696.13;;;9.71;100.00
24031;BME280;12240;51.142;22.486;2022-10-16T00:41:30;99703.25;;;9.71;100.00
24031;BME280;12240;51.142;22.486;2022-10-16T00:44:02;99707.06;;;9.78;100.00
24031;BME280;12240;51.142;22.486;2022-10-16T00:46:40;99700.88;;;9.77;100.00
24031;BME280;12240;51.142;22.486;2022-10-16T00:49:14;99663.78;;;9.57;100.00
24031;BME280;12240;51.142;22.486;2022-10-16T00:51:52;99699.50;;;9.73;100.00
24031;BME280;12240;51.142;22.486;2022-10-16T00:54:25;99717.97;;;9.75;100.00
24031;BME280;12240;51.142;22.486;2022-10-16T00:56:55;99673.44;;;9.48;100.00
24031;BME280;12240;51.142;22.486;2022-10-16T00:59:42;99717.81;;;9.67;100.00
24031;BME280;12240;51.142;22.486;2022-10-16T01:02:15;99726.19;;;9.62;100.00
24031;BME280;12240;51.142;22.486;2022-10-16T01:04:50;99729.28;;;9.58;100.00
24031;BME280;12240;51.142;22.486;2022-10-16T01:07:56;99727.03;;;9.53;100.00
24031;BME280;12240;51.142;22.486;2022-10-16T01:13:24;99725.06;;;9.46;100.00
24031;BME280;12240;51.142;22.486;2022-10-16T01:16:12;99687.38;;;9.21;100.00
24031;BME280;12240;51.142;22.486;2022-10-16T01:18:57;99733.84;;;9.46;100.00
24031;BME280;12240;51.142;22.486;2022-10-16T01:21:36;99696.47;;;9.19;100.00
24031;BME280;12240;51.142;22.486;2022-10-16T01:24:40;99735.38;;;9.39;100.00
24031;BME280;12240;51.142;22.486;2022-10-16T01:27:15;99634.72;;;8.87;100.00
24031;BME280;12240;51.142;22.486;2022-10-16T01:29:56;99720.72;;;9.35;100.00
24031;BME280;12240;51.142;22.486;2022-10-16T01:35:33;99703.34;;;9.21;100.00
24031;BME280;12240;51.142;22.486;2022-10-16T01:38:21;99726.31;;;9.32;100.00
24031;BME280;12240;51.142;22.486;2022-10-16T01:40:58;99708.94;;;9.28;100.00
24031;BME280;12240;51.142;22.486;2022-10-16T01:43:35;99729.63;;;9.34;100.00
24031;BME280;12240;51.142;22.486;2022-10-16T01:46:06;99722.50;;;9.34;100.00
24031;BME280;12240;51.142;22.486;2022-10-16T01:48:36;99715.22;;;9.27;100.00
24031;BME280;12240;51.142;22.486;2022-10-16T01:51:11;99717.75;;;9.28;100.00
24031;BME280;12240;51.142;22.486;2022-10-16T01:53:42;99717.72;;;9.19;100.00
24031;BME280;12240;51.142;22.486;2022-10-16T01:56:15;99677.94;;;8.89;100.00
24031;BME280;12240;51.142;22.486;2022-10-16T01:58:58;99704.66;;;9.06;100.00
24031;BME280;12240;51.142;22.486;2022-10-16T02:01:32;99723.44;;;9.14;100.00
24031;BME280;12240;51.142;22.486;2022-10-16T02:04:12;99734.34;;;9.11;100.00
24031;BME280;12240;51.142;22.486;2022-10-16T02:06:43;99725.66;;;9.09;100.00
24031;BME280;12240;51.142;22.486;2022-10-16T02:09:11;99676.59;;;8.74;100.00
24031;BME280;12240;51.142;22.486;2022-10-16T02:11:39;99720.72;;;8.95;100.00
24031;BME280;12240;51.142;22.486;2022-10-16T02:14:07;99728.28;;;9.00;100.00
24031;BME280;12240;51.142;22.486;2022-10-16T02:16:45;99691.84;;;8.72;100.00
24031;BME280;12240;51.142;22.486;2022-10-16T02:19:16;99733.84;;;8.97;100.00
24031;BME280;12240;51.142;22.486;2022-10-16T02:21:56;99720.41;;;8.89;100.00
24031;BME280;12240;51.142;22.486;2022-10-16T02:30:14;99750.59;;;8.88;100.00
24031;BME280;12240;51.142;22.486;2022-10-16T02:32:48;99704.19;;;8.62;100.00
24031;BME280;12240;51.142;22.486;2022-10-16T02:35:19;99754.94;;;8.89;100.00
24031;BME280;12240;51.142;22.486;2022-10-16T02:37:50;99702.66;;;8.59;100.00
24031;BME280;12240;51.142;22.486;2022-10-16T02:40:20;99749.28;;;8.82;100.00
24031;BME280;12240;51.142;22.486;2022-10-16T02:42:53;99742.72;;;8.77;100.00
24031;BME280;12240;51.142;22.486;2022-10-16T02:45:22;99709.34;;;8.54;100.00
24031;BME280;12240;51.142;22.486;2022-10-16T02:47:50;99716.66;;;8.61;100.00
24031;BME280;12240;51.142;22.486;2022-10-16T02:50:18;99747.31;;;8.75;100.00
24031;BME280;12240;51.142;22.486;2022-10-16T02:52:46;99746.31;;;8.76;100.00
24031;BME280;12240;51.142;22.486;2022-10-16T02:55:14;99736.97;;;8.72;100.00
24031;BME280;12240;51.142;22.486;2022-10-16T02:57:42;99727.25;;;8.61;100.00
24031;BME280;12240;51.142;22.486;2022-10-16T03:00:14;99743.81;;;8.74;100.00
24031;BME280;12240;51.142;22.486;2022-10-16T03:02:43;99697.41;;;8.48;100.00
24031;BME280;12240;51.142;22.486;2022-10-16T03:05:11;99738.38;;;8.76;100.00
24031;BME280;12240;51.142;22.486;2022-10-16T03:07:40;99727.56;;;8.68;100.00
24031;BME280;12240;51.142;22.486;2022-10-16T03:10:08;99701.47;;;8.43;100.00
24031;BME280;12240;51.142;22.486;2022-10-16T03:12:36;99743.91;;;8.63;100.00
24031;BME280;12240;51.142;22.486;2022-10-16T03:15:05;99747.38;;;8.64;100.00
24031;BME280;12240;51.142;22.486;2022-10-16T03:17:34;99735.28;;;8.50;100.00
24031;BME280;12240;51.142;22.486;2022-10-16T03:20:03;99753.22;;;8.58;100.00
24031;BME280;12240;51.142;22.486;2022-10-16T03:22:31;99762.72;;;8.60;100.00
24031;BME280;12240;51.142;22.486;2022-10-16T03:24:59;99764.56;;;8.60;100.00
24031;BME280;12240;51.142;22.486;2022-10-16T03:27:27;99743.56;;;8.36;100.00
24031;BME280;12240;51.142;22.486;2022-10-16T03:29:55;99761.84;;;8.50;100.00
24031;BME280;12240;51.142;22.486;2022-10-16T03:32:23;99762.72;;;8.40;100.00
24031;BME280;12240;51.142;22.486;2022-10-16T03:34:53;99776.31;;;8.46;100.00
24031;BME280;12240;51.142;22.486;2022-10-16T03:37:21;99771.16;;;8.45;100.00
24031;BME280;12240;51.142;22.486;2022-10-16T03:39:50;99754.59;;;8.32;100.00
24031;BME280;12240;51.142;22.486;2022-10-16T03:42:18;99771.00;;;8.46;100.00
24031;BME280;12240;51.142;22.486;2022-10-16T03:44:46;99777.03;;;8.48;100.00
24031;BME280;12240;51.142;22.486;2022-10-16T03:47:14;99769.34;;;8.45;100.00
24031;BME280;12240;51.142;22.486;2022-10-16T03:49:42;99750.25;;;8.31;100.00
24031;BME280;12240;51.142;22.486;2022-10-16T03:52:10;99784.69;;;8.42;100.00
24031;BME280;12240;51.142;22.486;2022-10-16T03:54:38;99783.00;;;8.41;100.00
24031;BME280;12240;51.142;22.486;2022-10-16T03:57:06;99788.81;;;8.35;100.00
24031;BME280;12240;51.142;22.486;2022-10-16T03:59:34;99786.16;;;8.35;100.00
24031;BME280;12240;51.142;22.486;2022-10-16T04:02:02;99786.28;;;8.33;100.00
24031;BME280;12240;51.142;22.486;2022-10-16T04:04:30;99735.78;;;8.03;100.00
24031;BME280;12240;51.142;22.486;2022-10-16T04:06:58;99792.50;;;8.43;100.00
24031;BME280;12240;51.142;22.486;2022-10-16T04:09:26;99790.06;;;8.31;100.00
24031;BME280;12240;51.142;22.486;2022-10-16T04:11:54;99800.16;;;8.37;100.00
24031;BME280;12240;51.142;22.486;2022-10-16T04:14:22;99790.25;;;8.39;100.00
24031;BME280;12240;51.142;22.486;2022-10-16T04:16:50;99758.22;;;8.19;100.00
24031;BME280;12240;51.142;22.486;2022-10-16T04:19:18;99802.22;;;8.54;100.00
24031;BME280;12240;51.142;22.486;2022-10-16T04:21:46;99809.09;;;8.56;100.00
24031;BME280;12240;51.142;22.486;2022-10-16T04:24:14;99806.31;;;8.58;100.00
24031;BME280;12240;51.142;22.486;2022-10-16T04:26:42;99808.25;;;8.56;100.00
24031;BME280;12240;51.142;22.486;2022-10-16T04:29:10;99814.66;;;8.53;100.00
24031;BME280;12240;51.142;22.486;2022-10-16T04:31:38;99801.78;;;8.49;100.00
24031;BME280;12240;51.142;22.486;2022-10-16T04:34:06;99799.25;;;8.47;100.00
24031;BME280;12240;51.142;22.486;2022-10-16T04:36:34;99816.22;;;8.56;100.00
24031;BME280;12240;51.142;22.486;2022-10-16T04:39:02;99823.66;;;8.62;100.00
24031;BME280;12240;51.142;22.486;2022-10-16T04:41:30;99822.44;;;8.66;100.00
24031;BME280;12240;51.142;22.486;2022-10-16T04:43:58;99804.81;;;8.65;100.00
24031;BME280;12240;51.142;22.486;2022-10-16T04:46:26;99819.03;;;8.84;100.00
24031;BME280;12240;51.142;22.486;2022-10-16T04:48:54;99816.72;;;8.91;100.00
24031;BME280;12240;51.142;22.486;2022-10-16T04:51:22;99773.41;;;8.70;100.00
24031;BME280;12240;51.142;22.486;2022-10-16T04:53:50;99827.78;;;9.16;100.00
24031;BME280;12240;51.142;22.486;2022-10-16T04:56:18;99812.50;;;9.18;100.00
24031;BME280;12240;51.142;22.486;2022-10-16T04:58:46;99821.97;;;9.32;100.00
24031;BME280;12240;51.142;22.486;2022-10-16T05:01:14;99828.44;;;9.49;100.00
24031;BME280;12240;51.142;22.486;2022-10-16T05:03:43;99826.38;;;9.62;100.00
24031;BME280;12240;51.142;22.486;2022-10-16T05:06:12;99836.06;;;9.72;100.00
24031;BME280;12240;51.142;22.486;2022-10-16T05:08:43;99822.50;;;9.75;100.00
24031;BME280;12240;51.142;22.486;2022-10-16T05:11:13;99834.03;;;9.85;100.00
24031;BME280;12240;51.142;22.486;2022-10-16T05:13:41;99834.03;;;9.95;100.00
24031;BME280;12240;51.142;22.486;2022-10-16T05:16:09;99834.31;;;10.01;100.00
24031;BME280;12240;51.142;22.486;2022-10-16T05:18:37;99825.09;;;10.05;100.00
24031;BME280;12240;51.142;22.486;2022-10-16T05:21:05;99833.41;;;10.21;100.00
24031;BME280;12240;51.142;22.486;2022-10-16T05:23:34;99836.50;;;10.26;100.00
24031;BME280;12240;51.142;22.486;2022-10-16T05:26:02;99799.78;;;10.11;100.00
24031;BME280;12240;51.142;22.486;2022-10-16T05:28:30;99796.72;;;10.25;100.00
24031;BME280;12240;51.142;22.486;2022-10-16T05:30:59;99838.59;;;10.51;100.00
24031;BME280;12240;51.142;22.486;2022-10-16T05:33:27;99808.19;;;10.44;100.00
24031;BME280;12240;51.142;22.486;2022-10-16T05:35:55;99802.16;;;10.42;100.00
24031;BME280;12240;51.142;22.486;2022-10-16T05:38:23;99833.81;;;10.55;100.00
24031;BME280;12240;51.142;22.486;2022-10-16T05:40:52;99859.03;;;10.70;100.00
24031;BME280;12240;51.142;22.486;2022-10-16T05:43:20;99862.97;;;10.66;100.00
24031;BME280;12240;51.142;22.486;2022-10-16T05:46:01;99816.75;;;10.38;100.00
24031;BME280;12240;51.142;22.486;2022-10-16T05:48:30;99827.38;;;10.48;100.00
24031;BME280;12240;51.142;22.486;2022-10-16T05:51:06;99877.13;;;10.67;100.00
24031;BME280;12240;51.142;22.486;2022-10-16T05:53:36;99871.94;;;10.65;100.00
24031;BME280;12240;51.142;22.486;2022-10-16T05:56:06;99873.75;;;10.65;100.00
24031;BME280;12240;51.142;22.486;2022-10-16T05:58:37;99864.38;;;10.51;100.00
24031;BME280;12240;51.142;22.486;2022-10-16T06:01:17;99838.88;;;10.39;100.00
24031;BME280;12240;51.142;22.486;2022-10-16T06:03:46;99887.63;;;10.68;100.00
24031;BME280;12240;51.142;22.486;2022-10-16T06:06:24;99850.63;;;10.46;100.00
24031;BME280;12240;51.142;22.486;2022-10-16T06:08:55;99896.06;;;10.73;100.00
24031;BME280;12240;51.142;22.486;2022-10-16T06:11:30;99888.91;;;10.64;100.00
24031;BME280;12240;51.142;22.486;2022-10-16T06:14:01;99911.34;;;10.71;100.00
24031;BME280;12240;51.142;22.486;2022-10-16T06:16:30;99865.66;;;10.47;100.00
24031;BME280;12240;51.142;22.486;2022-10-16T06:18:58;99915.53;;;10.74;100.00
24031;BME280;12240;51.142;22.486;2022-10-16T06:21:29;99877.13;;;10.47;100.00
24031;BME280;12240;51.142;22.486;2022-10-16T06:23:58;99921.84;;;10.73;100.00
24031;BME280;12240;51.142;22.486;2022-10-16T06:26:29;99915.97;;;10.69;100.00
24031;BME280;12240;51.142;22.486;2022-10-16T06:29:02;99921.97;;;10.81;100.00
24031;BME280;12240;51.142;22.486;2022-10-16T06:31:30;99890.59;;;10.55;100.00
24031;BME280;12240;51.142;22.486;2022-10-16T06:34:01;99921.84;;;10.82;100.00
24031;BME280;12240;51.142;22.486;2022-10-16T06:36:30;99879.06;;;10.65;100.00
24031;BME280;12240;51.142;22.486;2022-10-16T06:38:58;99946.94;;;10.99;100.00
24031;BME280;12240;51.142;22.486;2022-10-16T06:41:26;99931.38;;;11.04;100.00
24031;BME280;12240;51.142;22.486;2022-10-16T06:43:54;99919.44;;;11.08;100.00
24031;BME280;12240;51.142;22.486;2022-10-16T06:46:25;99927.28;;;11.19;100.00
24031;BME280;12240;51.142;22.486;2022-10-16T06:48:53;99902.72;;;11.15;100.00
24031;BME280;12240;51.142;22.486;2022-10-16T06:51:23;99905.81;;;11.30;100.00
24031;BME280;12240;51.142;22.486;2022-10-16T06:53:55;99939.41;;;11.69;100.00
24031;BME280;12240;51.142;22.486;2022-10-16T06:56:32;99889.41;;;11.61;100.00
24031;BME280;12240;51.142;22.486;2022-10-16T06:59:01;99896.50;;;11.80;100.00
24031;BME280;12240;51.142;22.486;2022-10-16T07:01:29;99934.69;;;12.17;100.00
24031;BME280;12240;51.142;22.486;2022-10-16T07:03:58;99935.06;;;12.22;100.00
24031;BME280;12240;51.142;22.486;2022-10-16T07:06:32;99934.47;;;12.28;100.00
24031;BME280;12240;51.142;22.486;2022-10-16T07:09:04;99936.84;;;12.49;100.00
24031;BME280;12240;51.142;22.486;2022-10-16T07:11:33;99934.44;;;12.55;100.00
24031;BME280;12240;51.142;22.486;2022-10-16T07:14:01;99936.19;;;12.64;100.00
24031;BME280;12240;51.142;22.486;2022-10-16T07:16:31;99944.97;;;12.74;100.00
24031;BME280;12240;51.142;22.486;2022-10-16T07:19:04;99946.34;;;12.96;100.00
24031;BME280;12240;51.142;22.486;2022-10-16T07:21:35;99909.53;;;12.90;100.00
24031;BME280;12240;51.142;22.486;2022-10-16T07:24:15;99959.97;;;13.46;100.00
24031;BME280;12240;51.142;22.486;2022-10-16T07:26:45;99881.88;;;13.17;100.00
24031;BME280;12240;51.142;22.486;2022-10-16T07:29:21;99959.75;;;13.57;100.00
24031;BME280;12240;51.142;22.486;2022-10-16T07:31:49;99950.75;;;13.40;100.00
24031;BME280;12240;51.142;22.486;2022-10-16T07:34:19;99962.03;;;13.52;100.00
24031;BME280;12240;51.142;22.486;2022-10-16T07:36:50;99959.25;;;13.61;100.00
24031;BME280;12240;51.142;22.486;2022-10-16T07:39:18;99922.16;;;13.41;100.00
24031;BME280;12240;51.142;22.486;2022-10-16T07:41:46;99919.97;;;13.62;100.00
24031;BME280;12240;51.142;22.486;2022-10-16T07:44:16;99945.94;;;14.03;100.00
24031;BME280;12240;51.142;22.486;2022-10-16T07:46:46;99956.69;;;14.11;100.00
24031;BME280;12240;51.142;22.486;2022-10-16T07:49:14;99944.56;;;13.99;100.00
24031;BME280;12240;51.142;22.486;2022-10-16T07:51:42;99946.00;;;14.19;100.00
24031;BME280;12240;51.142;22.486;2022-10-16T07:54:10;99931.88;;;14.01;100.00
24031;BME280;12240;51.142;22.486;2022-10-16T07:56:39;99899.66;;;13.85;100.00
24031;BME280;12240;51.142;22.486;2022-10-16T07:59:10;99895.78;;;13.79;100.00
24031;BME280;12240;51.142;22.486;2022-10-16T08:01:38;99931.22;;;14.07;100.00
24031;BME280;12240;51.142;22.486;2022-10-16T08:04:07;99860.13;;;13.71;100.00
24031;BME280;12240;51.142;22.486;2022-10-16T08:06:40;99932.69;;;14.35;100.00
24031;BME280;12240;51.142;22.486;2022-10-16T08:09:09;99892.13;;;14.22;100.00
24031;BME280;12240;51.142;22.486;2022-10-16T08:11:37;99915.81;;;14.51;100.00
24031;BME280;12240;51.142;22.486;2022-10-16T08:14:05;99920.03;;;14.61;100.00
24031;BME280;12240;51.142;22.486;2022-10-16T08:16:33;99879.97;;;14.44;100.00
24031;BME280;12240;51.142;22.486;2022-10-16T08:19:01;99922.59;;;14.87;100.00
24031;BME280;12240;51.142;22.486;2022-10-16T08:21:29;99922.41;;;15.12;100.00
24031;BME280;12240;51.142;22.486;2022-10-16T08:23:57;99930.13;;;15.32;100.00
24031;BME280;12240;51.142;22.486;2022-10-16T08:26:26;99904.31;;;15.31;100.00
24031;BME280;12240;51.142;22.486;2022-10-16T08:28:55;99918.25;;;15.42;100.00
24031;BME280;12240;51.142;22.486;2022-10-16T08:31:24;99917.56;;;15.56;100.00
24031;BME280;12240;51.142;22.486;2022-10-16T08:33:54;99890.28;;;15.83;100.00
24031;BME280;12240;51.142;22.486;2022-10-16T08:36:22;99917.53;;;16.11;100.00
24031;BME280;12240;51.142;22.486;2022-10-16T08:38:51;99924.44;;;16.05;100.00
24031;BME280;12240;51.142;22.486;2022-10-16T08:50:31;99924.50;;;16.89;100.00
24031;BME280;12240;51.142;22.486;2022-10-16T08:53:00;99932.00;;;17.16;100.00
24031;BME280;12240;51.142;22.486;2022-10-16T08:55:51;99934.94;;;17.29;100.00
24031;BME280;12240;51.142;22.486;2022-10-16T08:58:28;99918.22;;;17.19;100.00
24031;BME280;12240;51.142;22.486;2022-10-16T09:01:04;99946.69;;;17.28;100.00
24031;BME280;12240;51.142;22.486;2022-10-16T09:04:00;99942.63;;;17.18;100.00
24031;BME280;12240;51.142;22.486;2022-10-16T09:09:56;99907.97;;;17.15;100.00
24031;BME280;12240;51.142;22.486;2022-10-16T09:12:45;99941.44;;;17.35;100.00
24031;BME280;12240;51.142;22.486;2022-10-16T09:21:43;99910.03;;;16.90;100.00
24031;BME280;12240;51.142;22.486;2022-10-16T09:24:21;99962.53;;;17.09;100.00
24031;BME280;12240;51.142;22.486;2022-10-16T09:26:55;99956.28;;;17.08;100.00
24031;BME280;12240;51.142;22.486;2022-10-16T09:29:24;99929.38;;;16.86;100.00
24031;BME280;12240;51.142;22.486;2022-10-16T09:31:55;99948.78;;;17.04;100.00
24031;BME280;12240;51.142;22.486;2022-10-16T09:34:31;99915.94;;;16.86;100.00
24031;BME280;12240;51.142;22.486;2022-10-16T09:37:05;99902.00;;;16.82;100.00
24031;BME280;12240;51.142;22.486;2022-10-16T09:39:54;99941.22;;;16.99;100.00
24031;BME280;12240;51.142;22.486;2022-10-16T09:42:31;99923.69;;;16.89;100.00
24031;BME280;12240;51.142;22.486;2022-10-16T09:45:01;99964.72;;;17.05;100.00
24031;BME280;12240;51.142;22.486;2022-10-16T09:47:31;99946.91;;;17.04;100.00
24031;BME280;12240;51.142;22.486;2022-10-16T09:50:05;99914.09;;;16.64;100.00
24031;BME280;12240;51.142;22.486;2022-10-16T09:52:47;99948.00;;;16.95;100.00
24031;BME280;12240;51.142;22.486;2022-10-16T09:55:17;99945.72;;;17.07;100.00
24031;BME280;12240;51.142;22.486;2022-10-16T09:57:50;99912.44;;;16.85;100.00
24031;BME280;12240;51.142;22.486;2022-10-16T10:00:21;99963.97;;;17.19;100.00
24031;BME280;12240;51.142;22.486;2022-10-16T10:02:50;99957.63;;;17.12;100.00
24031;BME280;12240;51.142;22.486;2022-10-16T10:05:29;99948.81;;;17.18;100.00
24031;BME280;12240;51.142;22.486;2022-10-16T10:08:02;99894.31;;;16.79;100.00
24031;BME280;12240;51.142;22.486;2022-10-16T10:10:42;99953.19;;;17.19;100.00
24031;BME280;12240;51.142;22.486;2022-10-16T10:13:21;99901.16;;;17.04;100.00
24031;BME280;12240;51.142;22.486;2022-10-16T10:15:51;99959.06;;;17.23;100.00
24031;BME280;12240;51.142;22.486;2022-10-16T10:18:22;99954.84;;;17.20;100.00
24031;BME280;12240;51.142;22.486;2022-10-16T10:21:00;99959.75;;;17.17;100.00
24031;BME280;12240;51.142;22.486;2022-10-16T10:23:29;99952.66;;;17.01;100.00
24031;BME280;12240;51.142;22.486;2022-10-16T10:26:23;99929.56;;;16.84;100.00
24031;BME280;12240;51.142;22.486;2022-10-16T10:29:35;99956.66;;;17.05;100.00
24031;BME280;12240;51.142;22.486;2022-10-16T10:35:49;99959.72;;;17.02;100.00
24031;BME280;12240;51.142;22.486;2022-10-16T10:41:44;99961.78;;;17.15;100.00
24031;BME280;12240;51.142;22.486;2022-10-16T10:50:02;99947.78;;;17.42;100.00
24031;BME280;12240;51.142;22.486;2022-10-16T10:52:53;99948.31;;;17.60;100.00
24031;BME280;12240;51.142;22.486;2022-10-16T10:55:39;99890.03;;;17.44;100.00
24031;BME280;12240;51.142;22.486;2022-10-16T11:06:46;99936.81;;;17.81;100.00
24031;BME280;12240;51.142;22.486;2022-10-16T11:09:47;99916.56;;;17.56;100.00
24031;BME280;12240;51.142;22.486;2022-10-16T11:12:44;99912.09;;;17.63;100.00
24031;BME280;12240;51.142;22.486;2022-10-16T11:15:33;99882.28;;;17.27;100.00
24031;BME280;12240;51.142;22.486;2022-10-16T11:18:16;99880.06;;;17.30;100.00
24031;BME280;12240;51.142;22.486;2022-10-16T11:21:08;99801.84;;;16.80;100.00
24031;BME280;12240;51.142;22.486;2022-10-16T11:24:37;99920.38;;;17.38;100.00
24031;BME280;12240;51.142;22.486;2022-10-16T11:27:19;99913.41;;;17.44;100.00
24031;BME280;12240;51.142;22.486;2022-10-16T11:29:58;99916.28;;;17.42;100.00
24031;BME280;12240;51.142;22.486;2022-10-16T11:33:18;99909.44;;;17.40;100.00
24031;BME280;12240;51.142;22.486;2022-10-16T11:35:48;99867.00;;;17.27;100.00
24031;BME280;12240;51.142;22.486;2022-10-16T11:41:29;99916.47;;;17.26;100.00
24031;BME280;12240;51.142;22.486;2022-10-16T11:47:19;99909.41;;;17.63;100.00
24031;BME280;12240;51.142;22.486;2022-10-16T11:54:01;99923.03;;;17.61;100.00
24031;BME280;12240;51.142;22.486;2022-10-16T11:56:32;99923.88;;;17.62;100.00
24031;BME280;12240;51.142;22.486;2022-10-16T11:59:42;99913.09;;;17.62;100.00
24031;BME280;12240;51.142;22.486;2022-10-16T12:02:32;99917.13;;;17.66;100.00
24031;BME280;12240;51.142;22.486;2022-10-16T12:08:11;99915.72;;;17.84;100.00
24031;BME280;12240;51.142;22.486;2022-10-16T12:10:44;99913.59;;;17.80;100.00
24031;BME280;12240;51.142;22.486;2022-10-16T12:13:37;99865.84;;;17.59;100.00
24031;BME280;12240;51.142;22.486;2022-10-16T12:18:41;99916.09;;;18.10;100.00
24031;BME280;12240;51.142;22.486;2022-10-16T12:21:11;99873.03;;;18.17;100.00
24031;BME280;12240;51.142;22.486;2022-10-16T12:23:55;99817.84;;;18.13;100.00
24031;BME280;12240;51.142;22.486;2022-10-16T12:26:37;99900.00;;;18.67;100.00
24031;BME280;12240;51.142;22.486;2022-10-16T12:29:38;99891.59;;;18.77;100.00
24031;BME280;12240;51.142;22.486;2022-10-16T12:32:31;99883.84;;;18.88;100.00
24031;BME280;12240;51.142;22.486;2022-10-16T12:35:26;99892.16;;;19.14;100.00
24031;BME280;12240;51.142;22.486;2022-10-16T12:41:08;99857.88;;;19.36;99.57
24031;BME280;12240;51.142;22.486;2022-10-16T12:43:42;99876.31;;;19.53;96.99
24031;BME280;12240;51.142;22.486;2022-10-16T12:48:43;99897.97;;;20.01;95.46
24031;BME280;12240;51.142;22.486;2022-10-16T13:15:06;99903.97;;;20.24;92.21
24031;BME280;12240;51.142;22.486;2022-10-16T13:18:16;99913.38;;;20.34;93.01
24031;BME280;12240;51.142;22.486;2022-10-16T13:21:16;99891.94;;;20.33;92.16
24031;BME280;12240;51.142;22.486;2022-10-16T13:26:57;99858.41;;;19.87;91.74
24031;BME280;12240;51.142;22.486;2022-10-16T13:29:31;99892.59;;;20.07;90.89
24031;BME280;12240;51.142;22.486;2022-10-16T13:32:07;99900.34;;;20.10;91.61
24031;BME280;12240;51.142;22.486;2022-10-16T13:34:48;99858.03;;;19.90;91.61
24031;BME280;12240;51.142;22.486;2022-10-16T13:37:22;99896.72;;;19.97;92.07
24031;BME280;12240;51.142;22.486;2022-10-16T13:40:19;99868.97;;;19.47;92.07
24031;BME280;12240;51.142;22.486;2022-10-16T13:42:48;99854.47;;;19.27;92.67
24031;BME280;12240;51.142;22.486;2022-10-16T13:45:24;99852.16;;;19.24;92.02
24031;BME280;12240;51.142;22.486;2022-10-16T13:48:09;99846.78;;;19.24;92.84
24031;BME280;12240;51.142;22.486;2022-10-16T13:50:37;99848.69;;;19.30;92.40
24031;BME280;12240;51.142;22.486;2022-10-16T13:53:06;99870.94;;;19.32;93.37
24031;BME280;12240;51.142;22.486;2022-10-16T13:55:34;99872.81;;;19.32;92.96
24031;BME280;12240;51.142;22.486;2022-10-16T13:58:12;99878.78;;;19.27;95.17
24031;BME280;12240;51.142;22.486;2022-10-16T14:00:56;99877.47;;;19.23;94.72
24031;BME280;12240;51.142;22.486;2022-10-16T14:03:27;99838.56;;;18.90;95.60
24031;BME280;12240;51.142;22.486;2022-10-16T14:05:59;99881.53;;;19.34;95.92
24031;BME280;12240;51.142;22.486;2022-10-16T14:08:30;99854.75;;;19.32;94.86
24031;BME280;12240;51.142;22.486;2022-10-16T14:11:02;99885.78;;;19.77;94.34
24031;BME280;12240;51.142;22.486;2022-10-16T14:13:34;99883.28;;;19.76;93.93
24031;BME280;12240;51.142;22.486;2022-10-16T14:16:20;99861.34;;;19.57;94.29
24031;BME280;12240;51.142;22.486;2022-10-16T14:19:03;99875.63;;;19.45;93.95
24031;BME280;12240;51.142;22.486;2022-10-16T14:21:34;99837.84;;;19.24;94.71
24031;BME280;12240;51.142;22.486;2022-10-16T14:24:33;99867.88;;;19.42;94.54
24031;BME280;12240;51.142;22.486;2022-10-16T14:27:20;99871.44;;;19.42;95.55
24031;BME280;12240;51.142;22.486;2022-10-16T14:30:01;99860.03;;;19.19;95.65
24031;BME280;12240;51.142;22.486;2022-10-16T14:32:29;99873.09;;;19.16;96.52
24031;BME280;12240;51.142;22.486;2022-10-16T14:34:57;99830.56;;;18.76;97.80
24031;BME280;12240;51.142;22.486;2022-10-16T14:37:28;99870.78;;;18.92;98.90
24031;BME280;12240;51.142;22.486;2022-10-16T14:39:57;99871.28;;;18.81;100.00
24031;BME280;12240;51.142;22.486;2022-10-16T14:42:25;99881.63;;;18.77;100.00
24031;BME280;12240;51.142;22.486;2022-10-16T14:44:54;99863.44;;;18.65;100.00
24031;BME280;12240;51.142;22.486;2022-10-16T14:47:25;99882.78;;;18.68;100.00
24031;BME280;12240;51.142;22.486;2022-10-16T14:49:55;99884.31;;;18.56;100.00
24031;BME280;12240;51.142;22.486;2022-10-16T14:52:26;99847.84;;;18.24;100.00
24031;BME280;12240;51.142;22.486;2022-10-16T14:54:54;99888.34;;;18.45;100.00
24031;BME280;12240;51.142;22.486;2022-10-16T14:57:27;99879.75;;;18.56;100.00
24031;BME280;12240;51.142;22.486;2022-10-16T14:59:59;99854.31;;;18.44;100.00